Flight Track Log - Related Links

Times and Time Zones

All times are in EDT time to prevent confusion due to time zone crossing. See the ASQ4421 flight status page for this flight to view local times or setup timezone preferences in your user account.

Time Position Orientation Groundspeed Altitude Reporting Facility
EDT Latitude Longitude Course Direction KTS MPH feet Rate Location/Type
Sun 08:35:57 AM 29.9617 -95.3436 337° Northwest 152 175 900  Level Houston Center
Sun 08:37:10 AM 29.9642 -95.3939 273° West 247 284 4,200 2,859 Climbing Houston Center
Sun 08:38:05 AM 30.0269 -95.4053 351° North 248 285 7,000 3,207 Climbing Houston Center
Sun 08:39:00 AM 30.3385 -95.5428 332° Northwest  Level FlightAware Approximate
Sun 08:39:06 AM 30.0994 -95.4189 351° North 261 300 10,400  Level Houston Center
Sun 08:40:00 AM 30.4281 -95.5934 334° Northwest  Level FlightAware Approximate
Sun 08:40:07 AM 30.1792 -95.4642 334° Northwest 314 361 11,200  Level Houston Center
Sun 08:41:00 AM 30.5184 -95.6425 337° Northwest  Level FlightAware Approximate
Sun 08:41:08 AM 30.2731 -95.5133 336° Northwest 365 420 12,900  Level Houston Center
Sun 08:42:09 AM 30.3683 -95.5631 336° Northwest 375 432 14,600 1,672 Climbing Houston Center
Sun 08:43:10 AM 30.4669 -95.6161 335° Northwest 387 445 16,300 1,623 Climbing Houston Center
Sun 08:44:11 AM 30.5669 -95.6675 336° Northwest 391 450 17,900 1,623 Climbing Houston Center
Sun 08:45:12 AM 30.6664 -95.7217 335° Northwest 394 453 19,600 1,967 Climbing Houston Center
Sun 08:46:13 AM 30.7767 -95.7808 335° Northwest 395 455 21,900 2,311 Climbing Houston Center
Sun 08:47:14 AM 30.8733 -95.8322 335° Northwest 383 441 24,300 2,115 Climbing Houston Center
Sun 08:48:15 AM 30.9664 -95.8828 335° Northwest 372 428 26,200 1,918 Climbing Houston Center
Sun 08:49:16 AM 31.0594 -95.9317 336° Northwest 366 421 28,200 1,721 Climbing Houston Center
Sun 08:50:17 AM 31.1533 -95.9797 336° Northwest 366 421 29,700 1,385 Climbing Houston Center
Sun 08:50:34 AM 31.1928 -95.9928 344° North 376 433 30,000 234 Climbing Fort Worth Center
Sun 08:51:34 AM 31.3039 -96.0372 341° North 394 453 30,000  Level Fort Worth Center
Sun 08:52:34 AM 31.4172 -96.0817 341° North 421 484 30,000  Level Fort Worth Center
Sun 08:53:34 AM 31.5408 -96.1286 342° North 446 513 30,000  Level Fort Worth Center
Sun 08:54:34 AM 31.6539 -96.1736 341° North 440 506 30,000  Level Fort Worth Center
Sun 08:55:34 AM 31.7733 -96.2136 344° North 435 501 30,000  Level Fort Worth Center
Sun 08:56:34 AM 31.8906 -96.2536 344° North 440 506 30,000  Level Fort Worth Center
Sun 08:57:34 AM 32.0100 -96.2936 344° North 440 506 30,000  Level Fort Worth Center
Sun 08:58:34 AM 32.1189 -96.3292 345° North 440 506 30,000  Level Fort Worth Center
Sun 08:59:34 AM 32.2467 -96.3744 343° North 440 506 30,000  Level Fort Worth Center
Sun 09:00:34 AM 32.3575 -96.4100 345° North 440 506 30,000  Level Fort Worth Center
Sun 09:01:34 AM 32.4853 -96.4553 343° North 440 506 30,000  Level Fort Worth Center
Sun 09:02:34 AM 32.5942 -96.4911 345° North 440 506 30,000  Level Fort Worth Center
Sun 09:03:34 AM 32.7239 -96.5342 344° North 440 506 30,000  Level Fort Worth Center
Sun 09:04:34 AM 32.8411 -96.5753 344° North 440 506 30,000  Level Fort Worth Center
Sun 09:05:34 AM 32.9497 -96.6089 345° North 439 505 30,000  Level Fort Worth Center
Sun 09:06:34 AM 33.0836 -96.6597 342° North 439 505 30,000  Level Fort Worth Center
Sun 09:07:34 AM 33.1903 -96.6936 345° North 446 513 30,000  Level Fort Worth Center
Sun 09:08:34 AM 33.3200 -96.7372 344° North 436 502 30,000  Level Fort Worth Center
Sun 09:09:34 AM 33.4267 -96.7764 343° North 442 509 30,000  Level Fort Worth Center
Sun 09:10:34 AM 33.5564 -96.8203 344° North 435 501 30,000  Level Fort Worth Center
Sun 09:11:34 AM 33.6628 -96.8544 345° North 435 501 30,000  Level Fort Worth Center
Sun 09:12:34 AM 33.7925 -96.9011 343° North 440 506 30,000  Level Fort Worth Center
Sun 09:13:34 AM 33.9053 -96.9406 344° North 426 490 30,000  Level Fort Worth Center
Sun 09:14:34 AM 34.0225 -96.9850 343° North 426 490 30,000 -250 Level Fort Worth Center
Sun 09:15:34 AM 34.1394 -97.0269 343° North 426 490 29,500 -1,450 Descending Fort Worth Center
Sun 09:16:34 AM 34.2606 -97.0692 344° North 438 504 27,100 -2,350 Descending Fort Worth Center
Sun 09:17:34 AM 34.3836 -97.1089 345° North 443 510 24,800 -2,150 Descending Fort Worth Center
Sun 09:18:34 AM 34.4986 -97.1514 343° North 443 510 22,800 -2,000 Descending Fort Worth Center
Sun 09:19:34 AM 34.6114 -97.1914 344° North 433 498 20,800 -1,950 Descending Fort Worth Center
Sun 09:20:34 AM 34.7178 -97.2292 344° North 393 452 18,900 -1,900 Descending Fort Worth Center
Sun 09:20:34 AM 34.7178 -97.2292 344° North 415 478 18,900 -2,262 Level Fort Worth Center
Sun 09:21:35 AM 34.8181 -97.2642 344° North 377 434 16,600 -2,750 Descending Fort Worth Center
Sun 09:22:34 AM 34.9119 -97.3097 338° Northwest 370 426 13,400 -3,025 Descending Fort Worth Center
Sun 09:23:34 AM 34.9892 -97.3628 331° Northwest 338 389 10,600 -1,950 Descending Fort Worth Center
Sun 09:24:34 AM 35.0536 -97.4136 327° Northwest 307 353 9,500 -1,750 Descending Fort Worth Center
Sun 09:25:34 AM 35.1100 -97.4542 330° Northwest 263 303 7,100 -2,350 Descending Fort Worth Center
Sun 09:26:34 AM 35.1642 -97.4947 329° Northwest 240 276 4,800 -1,850 Descending Fort Worth Center
Sun 09:27:34 AM 35.2225 -97.5381 329° Northwest 240 276 3,400 -900 Descending Fort Worth Center
Sun 09:28:34 AM 35.2769 -97.5764 330° Northwest 240 276 3,000 -400 Descending Fort Worth Center
Sun 09:29:34 AM 35.3186 -97.5942 341° North 206 237 2,600 -600 Descending Fort Worth Center
Sun 09:30:34 AM 35.3561 -97.5917 North 152 175 1,800 -800 Descending Fort Worth Center

Login

Don't have an account? Register now (free) for customized features, flight alerts, and more!